Time;durP1;ratioP1;P1;durP2;ratioP2;P2;SDS_P1;SDS_P2;PMS_P1;PMS_P2;Temp;Humidity;BMP_temperature;BMP_pressure;BME280_temperature;BME280_humidity;BME280_pressure;Samples;Min_cycle;Max_cycle;Signal;HPM_P1;HPM_P2
2022/09/28 00:00:22;;;;;;;5.60;3.87;;;;;;;;;;5135641;27;20745;-69
2022/09/28 00:02:51;;;;;;;4.70;3.50;;;;;;;;;;5135635;27;20485;-69
2022/09/28 00:05:20;;;;;;;5.63;4.13;;;;;;;;;;5136323;27;20476;-69
2022/09/28 00:07:47;;;;;;;4.63;3.43;;;;;;;;;;5136203;27;20454;-69
2022/09/28 00:10:14;;;;;;;6.50;3.47;;;;;;;;;;5135714;27;20450;-69
2022/09/28 00:12:42;;;;;;;5.93;3.63;;;;;;;;;;5136520;27;20882;-69
2022/09/28 00:15:09;;;;;;;5.80;3.90;;;;;;;;;;5136185;27;20452;-69
2022/09/28 00:17:36;;;;;;;4.83;3.37;;;;;;;;;;5135778;27;20481;-69
2022/09/28 00:20:04;;;;;;;6.63;3.30;;;;;;;;;;5136178;27;20461;-69
2022/09/28 00:22:31;;;;;;;5.80;3.70;;;;;;;;;;5136000;27;21022;-69
2022/09/28 00:24:59;;;;;;;4.40;3.27;;;;;;;;;;5135362;27;20454;-70
2022/09/28 00:27:26;;;;;;;5.57;3.90;;;;;;;;;;5135644;27;20464;-69
2022/09/28 00:29:58;;;;;;;5.03;3.77;;;;;;;;;;5135242;27;21098;-69
2022/09/28 00:32:25;;;;;;;5.77;3.63;;;;;;;;;;5135241;27;20496;-69
2022/09/28 00:34:57;;;;;;;5.33;3.87;;;;;;;;;;5135860;27;20934;-70
2022/09/28 00:37:38;;;;;;;5.67;3.57;;;;;;;;;;5135106;27;20754;-69
2022/09/28 00:40:05;;;;;;;5.07;4.23;;;;;;;;;;5135069;27;20481;-69
2022/09/28 00:42:32;;;;;;;8.27;4.90;;;;;;;;;;5135562;27;20449;-69
2022/09/28 00:45:00;;;;;;;6.37;3.73;;;;;;;;;;5135172;27;20464;-69
2022/09/28 00:47:41;;;;;;;8.63;4.50;;;;;;;;;;5135157;27;20750;-69
2022/09/28 00:50:15;;;;;;;5.87;4.53;;;;;;;;;;5135798;27;20508;-69
2022/09/28 00:52:46;;;;;;;5.77;3.80;;;;;;;;;;5135757;27;20453;-69
2022/09/28 00:55:15;;;;;;;7.97;3.90;;;;;;;;;;5136422;27;20461;-69
2022/09/28 00:57:44;;;;;;;6.40;3.70;;;;;;;;;;5135944;27;20485;-68
2022/09/28 01:00:12;;;;;;;4.73;3.57;;;;;;;;;;5135083;27;20959;-69
2022/09/28 01:02:40;;;;;;;7.40;5.17;;;;;;;;;;5136344;27;20514;-69
2022/09/28 01:05:09;;;;;;;9.23;5.03;;;;;;;;;;5135519;27;20453;-69
2022/09/28 01:07:36;;;;;;;9.83;5.70;;;;;;;;;;5135292;27;20883;-69
2022/09/28 01:10:04;;;;;;;9.03;5.40;;;;;;;;;;5134743;27;20961;-69
2022/09/28 01:12:31;;;;;;;9.80;7.10;;;;;;;;;;5135187;27;20951;-68
2022/09/28 01:15:00;;;;;;;11.23;6.17;;;;;;;;;;5135444;27;20475;-69
2022/09/28 01:17:32;;;;;;;11.83;5.47;;;;;;;;;;5135029;27;20501;-68
2022/09/28 01:20:07;;;;;;;9.93;6.17;;;;;;;;;;5135166;27;20460;-68
2022/09/28 01:22:59;;;;;;;11.73;7.13;;;;;;;;;;5135255;27;20441;-69
2022/09/28 01:25:34;;;;;;;8.00;6.33;;;;;;;;;;5135347;27;20496;-69
2022/09/28 01:28:04;;;;;;;15.20;7.23;;;;;;;;;;5135006;27;20548;-69
2022/09/28 01:30:36;;;;;;;11.60;7.63;;;;;;;;;;5134945;27;20782;-69
2022/09/28 01:33:05;;;;;;;8.80;6.40;;;;;;;;;;5135211;27;20712;-69
2022/09/28 01:35:36;;;;;;;10.93;7.63;;;;;;;;;;5135411;27;21125;-69
2022/09/28 01:38:05;;;;;;;13.23;8.00;;;;;;;;;;5135328;27;20453;-69
2022/09/28 01:40:35;;;;;;;11.43;7.60;;;;;;;;;;5135174;27;20477;-69
2022/09/28 01:43:06;;;;;;;10.40;7.83;;;;;;;;;;5135321;27;20450;-68
2022/09/28 01:45:34;;;;;;;11.87;7.90;;;;;;;;;;5134731;27;20461;-68
2022/09/28 01:48:03;;;;;;;14.23;8.70;;;;;;;;;;5134992;27;20615;-69
2022/09/28 01:50:35;;;;;;;11.60;6.80;;;;;;;;;;5134766;27;20477;-68
2022/09/28 01:53:06;;;;;;;12.47;8.07;;;;;;;;;;5138236;27;20505;-69
2022/09/28 01:55:34;;;;;;;13.27;8.87;;;;;;;;;;5139093;27;20493;-69
2022/09/28 01:58:03;;;;;;;10.97;8.10;;;;;;;;;;5138717;27;20450;-69
2022/09/28 02:00:33;;;;;;;11.97;8.13;;;;;;;;;;5138326;27;20891;-69
2022/09/28 02:03:02;;;;;;;15.57;9.60;;;;;;;;;;5139111;27;20441;-69
2022/09/28 02:05:31;;;;;;;14.60;9.73;;;;;;;;;;5138476;27;20623;-68
2022/09/28 02:08:00;;;;;;;13.17;8.43;;;;;;;;;;5138248;27;20453;-69
2022/09/28 02:10:29;;;;;;;11.70;8.77;;;;;;;;;;5138571;27;20532;-69
2022/09/28 02:13:00;;;;;;;12.90;8.67;;;;;;;;;;5138875;27;20442;-69
2022/09/28 02:15:30;;;;;;;13.37;9.60;;;;;;;;;;5137954;27;20711;-69
2022/09/28 02:17:58;;;;;;;13.77;8.83;;;;;;;;;;5138099;27;20507;-69
2022/09/28 02:20:29;;;;;;;13.90;9.13;;;;;;;;;;5137740;27;20564;-69
2022/09/28 02:22:56;;;;;;;13.60;8.13;;;;;;;;;;5137923;27;20453;-69
2022/09/28 02:25:30;;;;;;;16.90;9.80;;;;;;;;;;5137794;27;20461;-68
2022/09/28 02:27:59;;;;;;;16.93;9.67;;;;;;;;;;5137801;27;20449;-69
2022/09/28 02:30:27;;;;;;;10.93;7.63;;;;;;;;;;5135185;27;20526;-69
2022/09/28 02:32:56;;;;;;;11.63;8.20;;;;;;;;;;5135266;27;20449;-69
2022/09/28 02:35:24;;;;;;;12.47;9.20;;;;;;;;;;5135895;27;20465;-69
2022/09/28 02:37:52;;;;;;;17.00;8.40;;;;;;;;;;5134894;27;20485;-69
2022/09/28 02:40:20;;;;;;;16.27;9.67;;;;;;;;;;5135685;27;20457;-69
2022/09/28 02:42:57;;;;;;;11.87;8.03;;;;;;;;;;5135825;27;20455;-69
2022/09/28 02:45:30;;;;;;;17.27;8.67;;;;;;;;;;5135829;27;20512;-69
2022/09/28 02:48:02;;;;;;;15.23;9.97;;;;;;;;;;5136214;27;20454;-69
2022/09/28 02:50:36;;;;;;;15.70;10.23;;;;;;;;;;5134529;27;20951;-69
2022/09/28 02:53:20;;;;;;;13.80;9.10;;;;;;;;;;5136185;27;20446;-69
2022/09/28 02:55:52;;;;;;;16.10;10.07;;;;;;;;;;5136272;27;20453;-69
2022/09/28 02:58:21;;;;;;;13.63;7.80;;;;;;;;;;5134841;27;20457;-69
2022/09/28 03:00:52;;;;;;;12.83;9.00;;;;;;;;;;5134978;27;20473;-69
2022/09/28 03:03:21;;;;;;;12.17;8.40;;;;;;;;;;5134998;27;20536;-69
2022/09/28 03:05:56;;;;;;;14.73;8.23;;;;;;;;;;5135493;27;20491;-69
2022/09/28 03:08:25;;;;;;;14.17;8.10;;;;;;;;;;5135035;27;20861;-70
2022/09/28 03:10:56;;;;;;;66.00;36.67;;;;;;;;;;5135343;27;20458;-70
2022/09/28 03:13:23;;;;;;;15.93;8.63;;;;;;;;;;5135755;27;20457;-70
2022/09/28 03:15:50;;;;;;;12.97;8.90;;;;;;;;;;5135107;27;20445;-70
2022/09/28 03:18:17;;;;;;;13.97;8.67;;;;;;;;;;5134275;27;20458;-70
2022/09/28 03:20:46;;;;;;;15.83;10.80;;;;;;;;;;5134994;27;20458;-69
2022/09/28 03:23:14;;;;;;;12.17;8.70;;;;;;;;;;5135239;27;20931;-69
2022/09/28 03:25:41;;;;;;;16.70;8.87;;;;;;;;;;5134571;27;20454;-69
2022/09/28 03:28:08;;;;;;;12.93;8.97;;;;;;;;;;5134727;27;20583;-69
2022/09/28 03:30:35;;;;;;;13.77;9.40;;;;;;;;;;5134907;27;20458;-70
2022/09/28 03:33:03;;;;;;;14.23;9.07;;;;;;;;;;5135643;27;20540;-70
2022/09/28 03:35:30;;;;;;;17.30;8.67;;;;;;;;;;5135196;27;20457;-69
2022/09/28 03:37:57;;;;;;;18.03;9.00;;;;;;;;;;5134409;27;20497;-69
2022/09/28 03:40:25;;;;;;;14.43;9.00;;;;;;;;;;5134470;27;20454;-69
2022/09/28 03:42:52;;;;;;;13.00;8.63;;;;;;;;;;5134779;27;20457;-69
2022/09/28 03:45:22;;;;;;;13.30;8.20;;;;;;;;;;5135221;27;20866;-70
2022/09/28 03:47:49;;;;;;;14.83;8.80;;;;;;;;;;5134743;27;20454;-70
2022/09/28 03:50:20;;;;;;;16.10;10.83;;;;;;;;;;5135136;27;20489;-69
2022/09/28 03:52:47;;;;;;;12.67;8.47;;;;;;;;;;5134205;27;20446;-69
2022/09/28 03:55:14;;;;;;;12.53;8.40;;;;;;;;;;5134746;27;20458;-69
2022/09/28 03:57:42;;;;;;;11.63;8.33;;;;;;;;;;5134783;27;20520;-69
2022/09/28 04:00:10;;;;;;;18.67;9.93;;;;;;;;;;5134698;27;20472;-69
2022/09/28 04:02:37;;;;;;;15.53;9.50;;;;;;;;;;5134048;27;20460;-70
2022/09/28 04:05:04;;;;;;;13.97;9.17;;;;;;;;;;5133824;27;20460;-70
2022/09/28 04:07:31;;;;;;;13.17;9.50;;;;;;;;;;5134217;27;20722;-70
2022/09/28 04:09:58;;;;;;;15.03;7.93;;;;;;;;;;5134329;27;20462;-70
2022/09/28 04:12:25;;;;;;;14.00;8.93;;;;;;;;;;5117773;28;20986;-70
2022/09/28 04:14:53;;;;;;;13.70;8.27;;;;;;;;;;5112626;28;20458;-70
2022/09/28 04:17:20;;;;;;;20.67;10.53;;;;;;;;;;5113289;28;20494;-70
2022/09/28 04:19:48;;;;;;;15.27;10.13;;;;;;;;;;5112786;28;20462;-70
2022/09/28 04:22:15;;;;;;;14.63;9.63;;;;;;;;;;5112757;28;20451;-70
2022/09/28 04:24:42;;;;;;;18.83;10.23;;;;;;;;;;5113852;28;20451;-70
2022/09/28 04:29:55;;;;;;;16.50;10.40;;;;;;;;;;5112988;28;20438;-68
2022/09/28 04:32:23;;;;;;;17.87;10.90;;;;;;;;;;5113100;28;20825;-68
2022/09/28 04:34:50;;;;;;;21.23;11.93;;;;;;;;;;5114443;28;20489;-69
2022/09/28 04:37:17;;;;;;;17.70;12.10;;;;;;;;;;5113483;28;20487;-71
2022/09/28 04:39:44;;;;;;;16.90;11.20;;;;;;;;;;5114119;28;20459;-69
2022/09/28 04:42:11;;;;;;;19.83;12.57;;;;;;;;;;5113193;28;20457;-69
2022/09/28 04:44:38;;;;;;;14.80;10.90;;;;;;;;;;5113829;28;20466;-69
2022/09/28 04:47:11;;;;;;;19.67;12.37;;;;;;;;;;5113045;28;20458;-70
2022/09/28 04:49:39;;;;;;;17.60;11.67;;;;;;;;;;5112956;28;20454;-69
2022/09/28 04:52:06;;;;;;;20.77;12.00;;;;;;;;;;5112753;28;20446;-69
2022/09/28 04:54:33;;;;;;;18.30;11.80;;;;;;;;;;5112895;28;20765;-69
2022/09/28 04:57:00;;;;;;;21.50;13.67;;;;;;;;;;5113416;28;20486;-69
2022/09/28 04:59:28;;;;;;;21.43;12.40;;;;;;;;;;5112031;28;20759;-69
2022/09/28 05:01:56;;;;;;;20.97;13.07;;;;;;;;;;5111763;28;20493;-69
2022/09/28 05:04:27;;;;;;;24.73;12.50;;;;;;;;;;5117481;28;20765;-69
2022/09/28 05:06:54;;;;;;;19.90;13.20;;;;;;;;;;5131634;27;20453;-69
2022/09/28 05:09:21;;;;;;;21.93;12.80;;;;;;;;;;5132906;27;20449;-69
2022/09/28 05:11:49;;;;;;;33.37;20.20;;;;;;;;;;5131075;27;20464;-69
2022/09/28 05:14:16;;;;;;;20.80;13.97;;;;;;;;;;5133128;27;20492;-69
2022/09/28 05:16:46;;;;;;;21.53;13.30;;;;;;;;;;5133845;27;21070;-69
2022/09/28 05:19:13;;;;;;;23.13;12.77;;;;;;;;;;5131594;27;20446;-69
2022/09/28 05:21:47;;;;;;;21.03;12.97;;;;;;;;;;5122305;28;20522;-70
2022/09/28 05:24:16;;;;;;;20.83;13.00;;;;;;;;;;5112564;28;20486;-70
2022/09/28 05:26:44;;;;;;;25.73;13.13;;;;;;;;;;5114224;28;20484;-70
2022/09/28 05:29:11;;;;;;;23.23;13.30;;;;;;;;;;5118373;27;20446;-69
2022/09/28 05:31:38;;;;;;;21.93;12.87;;;;;;;;;;5118791;27;20450;-69
2022/09/28 05:34:05;;;;;;;23.30;13.53;;;;;;;;;;5117821;27;20655;-69
2022/09/28 05:36:32;;;;;;;22.30;13.60;;;;;;;;;;5117810;27;20478;-68
2022/09/28 05:39:02;;;;;;;19.67;12.27;;;;;;;;;;5119196;27;20486;-69
2022/09/28 05:41:29;;;;;;;22.07;13.40;;;;;;;;;;5118310;27;20916;-69
2022/09/28 05:43:57;;;;;;;23.73;14.03;;;;;;;;;;5117360;27;20535;-68
2022/09/28 05:46:24;;;;;;;23.10;13.40;;;;;;;;;;5116180;27;20469;-69
2022/09/28 05:48:53;;;;;;;23.40;13.37;;;;;;;;;;5120050;27;20445;-69
2022/09/28 05:51:21;;;;;;;23.53;14.77;;;;;;;;;;5138747;27;20480;-69
2022/09/28 05:54:03;;;;;;;19.87;13.57;;;;;;;;;;5137538;27;20449;-69
2022/09/28 05:56:31;;;;;;;23.83;14.17;;;;;;;;;;5128387;27;20550;-69
2022/09/28 05:59:04;;;;;;;21.17;14.10;;;;;;;;;;5133281;27;20454;-69
2022/09/28 06:01:31;;;;;;;23.70;13.20;;;;;;;;;;5125714;27;20453;-69
2022/09/28 06:03:58;;;;;;;19.00;12.73;;;;;;;;;;5121860;27;20473;-69
2022/09/28 06:06:25;;;;;;;20.37;14.17;;;;;;;;;;5118361;27;21086;-69
2022/09/28 06:08:53;;;;;;;20.07;13.40;;;;;;;;;;5117764;27;20457;-70
2022/09/28 06:11:20;;;;;;;20.70;13.27;;;;;;;;;;5117877;27;20442;-69
2022/09/28 06:13:54;;;;;;;17.20;11.83;;;;;;;;;;5118818;27;20446;-69
2022/09/28 06:16:22;;;;;;;24.13;15.00;;;;;;;;;;5119559;27;20496;-68
2022/09/28 06:18:50;;;;;;;23.57;14.90;;;;;;;;;;5137308;27;20948;-68
2022/09/28 06:21:18;;;;;;;22.53;14.63;;;;;;;;;;5137004;27;20488;-69
2022/09/28 06:23:48;;;;;;;24.43;14.43;;;;;;;;;;5138885;27;20454;-69
2022/09/28 06:26:17;;;;;;;21.37;15.13;;;;;;;;;;5138660;27;21002;-68
2022/09/28 06:28:44;;;;;;;28.90;15.67;;;;;;;;;;5137798;27;20441;-69
2022/09/28 06:31:12;;;;;;;23.70;14.73;;;;;;;;;;5138083;27;20846;-69
2022/09/28 06:33:40;;;;;;;24.77;14.20;;;;;;;;;;5139113;27;20450;-69
2022/09/28 06:36:08;;;;;;;21.97;13.63;;;;;;;;;;5138601;27;20454;-68
2022/09/28 06:38:35;;;;;;;20.93;13.90;;;;;;;;;;5135867;27;20450;-69
2022/09/28 06:41:03;;;;;;;23.57;14.53;;;;;;;;;;5136031;27;20457;-69
2022/09/28 06:43:30;;;;;;;19.83;13.93;;;;;;;;;;5135893;27;20441;-69
2022/09/28 06:45:57;;;;;;;26.47;15.50;;;;;;;;;;5136098;27;20556;-71
2022/09/28 06:48:25;;;;;;;22.50;14.67;;;;;;;;;;5135881;27;20457;-69
2022/09/28 06:50:55;;;;;;;25.47;13.40;;;;;;;;;;5135730;27;20468;-69
2022/09/28 06:53:26;;;;;;;21.37;14.37;;;;;;;;;;5133580;27;20439;-70
2022/09/28 06:55:55;;;;;;;22.17;14.00;;;;;;;;;;5123755;27;20557;-70
2022/09/28 06:58:22;;;;;;;22.87;14.50;;;;;;;;;;5130534;27;22573;-69
2022/09/28 07:00:51;;;;;;;20.03;13.93;;;;;;;;;;5128161;27;20475;-68
2022/09/28 07:03:24;;;;;;;25.10;16.60;;;;;;;;;;5118681;28;20458;-69
2022/09/28 07:05:55;;;;;;;24.00;13.13;;;;;;;;;;5134257;27;20541;-69
2022/09/28 07:08:23;;;;;;;24.17;14.83;;;;;;;;;;5132105;27;21007;-69
2022/09/28 07:10:55;;;;;;;27.20;14.33;;;;;;;;;;5135316;27;20460;-69
2022/09/28 07:13:23;;;;;;;18.53;12.30;;;;;;;;;;5132351;27;20914;-69
2022/09/28 07:15:54;;;;;;;24.03;14.07;;;;;;;;;;5121185;28;20496;-69
2022/09/28 07:18:23;;;;;;;19.80;13.00;;;;;;;;;;5114357;27;20983;-70
2022/09/28 07:20:52;;;;;;;22.47;12.97;;;;;;;;;;5117584;27;20466;-69
2022/09/28 07:23:19;;;;;;;19.20;13.67;;;;;;;;;;5118172;28;20761;-69
2022/09/28 07:25:47;;;;;;;19.60;12.60;;;;;;;;;;5133396;27;20488;-69
2022/09/28 07:28:15;;;;;;;22.50;12.00;;;;;;;;;;5134098;27;21003;-69
2022/09/28 07:30:45;;;;;;;24.43;13.83;;;;;;;;;;5130433;27;20481;-68
2022/09/28 07:33:13;;;;;;;21.63;11.23;;;;;;;;;;5118442;28;20469;-68
2022/09/28 07:35:41;;;;;;;23.93;13.30;;;;;;;;;;5132093;27;20708;-69
2022/09/28 07:38:19;;;;;;;21.10;13.10;;;;;;;;;;5114135;28;21026;-67
2022/09/28 07:43:33;;;;;;;22.23;13.23;;;;;;;;;;5126384;27;20448;-70
2022/09/28 07:46:00;;;;;;;21.90;12.53;;;;;;;;;;5129730;27;20982;-69
2022/09/28 07:48:35;;;;;;;21.60;13.30;;;;;;;;;;5116350;28;20525;-69
2022/09/28 07:51:03;;;;;;;20.70;12.67;;;;;;;;;;5122749;28;20453;-69
2022/09/28 07:53:32;;;;;;;21.50;12.70;;;;;;;;;;5119083;28;20868;-69
2022/09/28 07:56:05;;;;;;;21.90;14.53;;;;;;;;;;5116921;27;20468;-69
2022/09/28 07:58:33;;;;;;;18.07;11.27;;;;;;;;;;5115423;28;20443;-69
2022/09/28 08:01:04;;;;;;;20.07;12.20;;;;;;;;;;5114258;28;20496;-69
2022/09/28 08:03:42;;;;;;;23.00;14.87;;;;;;;;;;5113941;27;20465;-69
2022/09/28 08:06:16;;;;;;;17.13;11.17;;;;;;;;;;5118374;28;20472;-68
2022/09/28 08:09:02;;;;;;;20.47;11.83;;;;;;;;;;5115216;28;20566;-68
2022/09/28 08:11:36;;;;;;;20.90;12.67;;;;;;;;;;5116909;27;20471;-69
2022/09/28 08:14:04;;;;;;;17.67;11.73;;;;;;;;;;5113757;28;20491;-68
2022/09/28 08:16:37;;;;;;;19.33;12.77;;;;;;;;;;5118217;27;20486;-69
2022/09/28 08:19:13;;;;;;;16.67;11.37;;;;;;;;;;5112035;28;20460;-69
2022/09/28 08:21:46;;;;;;;18.77;11.23;;;;;;;;;;5114048;28;20729;-69
2022/09/28 08:24:14;;;;;;;20.20;13.23;;;;;;;;;;5113106;28;20465;-68
2022/09/28 08:26:42;;;;;;;22.60;13.13;;;;;;;;;;5120964;27;20513;-68
2022/09/28 08:29:13;;;;;;;19.83;12.40;;;;;;;;;;5133539;27;20461;-68
2022/09/28 08:31:40;;;;;;;24.70;13.43;;;;;;;;;;5134670;27;20553;-67
2022/09/28 08:34:12;;;;;;;19.10;11.20;;;;;;;;;;5126424;27;20523;-68
2022/09/28 08:36:43;;;;;;;22.13;13.27;;;;;;;;;;5112377;28;20490;-68
2022/09/28 08:39:11;;;;;;;16.00;11.50;;;;;;;;;;5124685;27;20765;-68
2022/09/28 08:41:43;;;;;;;16.17;10.27;;;;;;;;;;5118451;28;20475;-68
2022/09/28 08:44:22;;;;;;;20.50;12.50;;;;;;;;;;5133572;27;20461;-68
2022/09/28 08:46:50;;;;;;;16.90;11.30;;;;;;;;;;5126009;27;20469;-69
2022/09/28 08:49:28;;;;;;;21.93;12.70;;;;;;;;;;5118048;28;20747;-69
2022/09/28 08:52:03;;;;;;;17.53;11.90;;;;;;;;;;5133387;27;20472;-67
2022/09/28 08:54:47;;;;;;;18.87;12.27;;;;;;;;;;5117487;27;20850;-69
2022/09/28 08:57:16;;;;;;;18.77;12.17;;;;;;;;;;5130608;27;20550;-67
2022/09/28 08:59:50;;;;;;;15.80;11.47;;;;;;;;;;5128953;27;20779;-67
2022/09/28 09:02:21;;;;;;;24.23;14.30;;;;;;;;;;5122298;27;20754;-67
2022/09/28 09:04:48;;;;;;;17.37;11.20;;;;;;;;;;5121569;27;20553;-69
2022/09/28 09:07:31;;;;;;;18.87;12.53;;;;;;;;;;5114143;28;20474;-68
2022/09/28 09:10:04;;;;;;;21.07;11.70;;;;;;;;;;5115408;27;20451;-69
2022/09/28 09:12:36;;;;;;;21.03;12.67;;;;;;;;;;5122780;28;20783;-70
2022/09/28 09:15:30;;;;;;;20.67;13.00;;;;;;;;;;5115388;27;20553;-69
2022/09/28 09:18:04;;;;;;;21.73;12.07;;;;;;;;;;5121928;27;20486;-68
2022/09/28 09:20:41;;;;;;;18.77;12.20;;;;;;;;;;5129652;27;20565;-69
2022/09/28 09:23:12;;;;;;;17.97;10.93;;;;;;;;;;5117516;28;20464;-68
2022/09/28 09:25:45;;;;;;;18.50;11.77;;;;;;;;;;5130927;27;21010;-69
2022/09/28 09:28:31;;;;;;;18.30;12.07;;;;;;;;;;5121245;28;20480;-68
2022/09/28 09:31:07;;;;;;;16.30;10.97;;;;;;;;;;5118282;27;20569;-68
2022/09/28 09:33:50;;;;;;;16.47;10.73;;;;;;;;;;5115616;28;20454;-68
2022/09/28 09:36:29;;;;;;;17.00;10.77;;;;;;;;;;5114717;27;20930;-68
2022/09/28 09:39:17;;;;;;;;;;;;;;;;;;;;;
2022/09/28 09:41:55;;;;;;;24.43;15.60;;;;;;;;;;5133131;27;20888;-69
2022/09/28 09:44:32;;;;;;;16.20;11.98;;;;;;;;;;5126288;27;20455;-69
2022/09/28 09:47:06;;;;;;;15.40;10.07;;;;;;;;;;5126623;27;20196;-68
2022/09/28 09:49:49;;;;;;;15.77;11.40;;;;;;;;;;5123147;28;20909;-69
2022/09/28 09:52:25;;;;;;;14.60;10.00;;;;;;;;;;5118329;27;20453;-69
2022/09/28 09:54:57;;;;;;;15.77;10.07;;;;;;;;;;5115668;28;20537;-68
2022/09/28 09:57:26;;;;;;;15.03;11.87;;;;;;;;;;5121240;28;20481;-68
2022/09/28 10:00:11;;;;;;;13.70;10.80;;;;;;;;;;5120416;28;20485;-68
2022/09/28 10:02:41;;;;;;;14.83;10.70;;;;;;;;;;5132882;27;20522;-68
2022/09/28 10:05:18;;;;;;;22.17;11.70;;;;;;;;;;5131041;27;20794;-67
2022/09/28 10:07:49;;;;;;;17.10;10.17;;;;;;;;;;5131468;27;20506;-69
2022/09/28 10:10:20;;;;;;;17.10;10.53;;;;;;;;;;5115551;27;20812;-68
2022/09/28 10:12:48;;;;;;;20.80;10.90;;;;;;;;;;5125212;27;20572;-70
2022/09/28 10:15:16;;;;;;;18.07;11.33;;;;;;;;;;5121445;28;20557;-69
2022/09/28 10:17:43;;;;;;;18.73;11.40;;;;;;;;;;5124249;27;20576;-68
2022/09/28 10:20:14;;;;;;;19.90;10.60;;;;;;;;;;5116696;28;20454;-69
2022/09/28 10:22:43;;;;;;;16.43;10.23;;;;;;;;;;5114228;28;20453;-69
2022/09/28 10:25:16;;;;;;;14.87;10.27;;;;;;;;;;5124964;27;20465;-70
2022/09/28 10:27:48;;;;;;;17.50;10.30;;;;;;;;;;5132621;27;20847;-69
2022/09/28 10:30:23;;;;;;;14.90;10.50;;;;;;;;;;5131138;27;20460;-71
2022/09/28 10:32:58;;;;;;;16.33;11.13;;;;;;;;;;5125784;27;20924;-70
2022/09/28 10:35:30;;;;;;;18.37;11.00;;;;;;;;;;5124332;28;20927;-69
2022/09/28 10:38:00;;;;;;;12.77;9.17;;;;;;;;;;5128166;27;20488;-69
2022/09/28 10:40:32;;;;;;;18.10;10.60;;;;;;;;;;5114370;28;20699;-67
2022/09/28 10:43:05;;;;;;;16.87;9.77;;;;;;;;;;5128671;27;20453;-70
2022/09/28 10:45:37;;;;;;;16.33;10.07;;;;;;;;;;5125644;28;20466;-67
2022/09/28 10:48:09;;;;;;;18.43;9.73;;;;;;;;;;5115763;27;20883;-68
2022/09/28 10:50:38;;;;;;;14.33;10.80;;;;;;;;;;5114208;28;20474;-68
2022/09/28 10:53:11;;;;;;;12.67;9.03;;;;;;;;;;5115938;28;20451;-67
2022/09/28 10:55:39;;;;;;;17.67;10.10;;;;;;;;;;5115118;28;20473;-67
2022/09/28 10:58:23;;;;;;;13.57;9.80;;;;;;;;;;5115227;28;20589;-67
2022/09/28 11:00:51;;;;;;;13.53;9.90;;;;;;;;;;5120479;28;20733;-67
2022/09/28 11:03:19;;;;;;;14.90;9.83;;;;;;;;;;5131405;27;20442;-67
2022/09/28 11:05:54;;;;;;;13.10;8.90;;;;;;;;;;5118259;28;20461;-69
2022/09/28 11:08:25;;;;;;;15.40;11.10;;;;;;;;;;5127292;28;20968;-70
2022/09/28 11:11:14;;;;;;;14.63;10.33;;;;;;;;;;5135787;27;20438;-70
2022/09/28 11:13:46;;;;;;;15.80;11.23;;;;;;;;;;5133403;27;20864;-70
2022/09/28 11:16:24;;;;;;;15.13;10.33;;;;;;;;;;5135527;27;20484;-69
2022/09/28 11:18:51;;;;;;;15.27;10.50;;;;;;;;;;5133878;27;20555;-69
2022/09/28 11:21:25;;;;;;;16.53;10.87;;;;;;;;;;5126856;27;20736;-67
2022/09/28 11:24:06;;;;;;;16.73;10.00;;;;;;;;;;5116230;28;20458;-69
2022/09/28 11:26:36;;;;;;;16.27;11.30;;;;;;;;;;5112334;28;20477;-67
2022/09/28 11:29:03;;;;;;;24.00;10.57;;;;;;;;;;5111794;28;20494;-67
2022/09/28 11:31:33;;;;;;;13.17;9.57;;;;;;;;;;5111015;28;20458;-68
2022/09/28 11:34:11;;;;;;;16.30;9.80;;;;;;;;;;5123414;27;20732;-69
2022/09/28 11:36:46;;;;;;;14.93;8.57;;;;;;;;;;5130807;27;20511;-69
2022/09/28 11:39:19;;;;;;;15.60;10.03;;;;;;;;;;5119741;27;20718;-69
2022/09/28 11:41:54;;;;;;;10.93;8.53;;;;;;;;;;5114947;27;20546;-69
2022/09/28 11:44:27;;;;;;;17.20;9.80;;;;;;;;;;5115946;28;20761;-69
2022/09/28 11:47:03;;;;;;;15.17;8.10;;;;;;;;;;5121015;28;20527;-70
2022/09/28 11:49:34;;;;;;;12.20;8.47;;;;;;;;;;5125155;27;20465;-69
2022/09/28 11:52:08;;;;;;;12.17;7.90;;;;;;;;;;5126695;27;20639;-69
2022/09/28 11:54:43;;;;;;;13.50;10.00;;;;;;;;;;5128661;28;20480;-70
2022/09/28 11:57:15;;;;;;;12.83;8.70;;;;;;;;;;5113136;28;20486;-68
2022/09/28 11:59:47;;;;;;;16.80;9.73;;;;;;;;;;5123753;27;20894;-67
2022/09/28 12:02:16;;;;;;;13.00;8.27;;;;;;;;;;5125882;28;20462;-68
2022/09/28 12:04:45;;;;;;;11.37;7.77;;;;;;;;;;5114250;28;20886;-67
2022/09/28 12:07:14;;;;;;;10.90;7.47;;;;;;;;;;5115096;28;20485;-68
2022/09/28 12:09:43;;;;;;;9.93;7.93;;;;;;;;;;5114401;28;20466;-67
2022/09/28 12:12:16;;;;;;;14.40;8.13;;;;;;;;;;5119775;28;20537;-67
2022/09/28 12:14:46;;;;;;;13.77;7.33;;;;;;;;;;5134227;27;20468;-66
2022/09/28 12:17:18;;;;;;;9.97;6.90;;;;;;;;;;5114918;28;20569;-68
2022/09/28 12:19:49;;;;;;;11.53;7.77;;;;;;;;;;5130511;27;20453;-65
2022/09/28 12:22:20;;;;;;;9.60;8.07;;;;;;;;;;5122380;27;20461;-68
2022/09/28 12:24:52;;;;;;;9.17;7.30;;;;;;;;;;5134768;27;20504;-69
2022/09/28 12:27:37;;;;;;;10.27;8.17;;;;;;;;;;5130831;28;20569;-68
2022/09/28 12:30:11;;;;;;;9.83;7.00;;;;;;;;;;5133585;27;20530;-69
2022/09/28 12:32:41;;;;;;;10.77;6.73;;;;;;;;;;5131166;27;20462;-66
2022/09/28 12:35:13;;;;;;;10.57;6.93;;;;;;;;;;5114431;28;20820;-67
2022/09/28 12:37:56;;;;;;;10.00;7.80;;;;;;;;;;5130208;27;20474;-68
2022/09/28 12:40:32;;;;;;;12.00;7.40;;;;;;;;;;5135632;27;20450;-67
2022/09/28 12:43:10;;;;;;;10.00;7.33;;;;;;;;;;5125529;27;20470;-67
2022/09/28 12:45:50;;;;;;;8.97;8.00;;;;;;;;;;5127259;27;20461;-68
2022/09/28 12:48:25;;;;;;;8.33;6.83;;;;;;;;;;5125713;27;20450;-67
2022/09/28 12:50:59;;;;;;;11.30;8.13;;;;;;;;;;5132415;27;20442;-68
2022/09/28 12:53:37;;;;;;;11.00;8.07;;;;;;;;;;5131387;27;20536;-67
2022/09/28 12:56:05;;;;;;;8.03;6.60;;;;;;;;;;5123849;27;20679;-69
2022/09/28 12:58:47;;;;;;;10.63;6.90;;;;;;;;;;5130151;28;21108;-67
2022/09/28 13:01:22;;;;;;;9.97;6.37;;;;;;;;;;5134093;27;20870;-67
2022/09/28 13:04:04;;;;;;;8.67;5.93;;;;;;;;;;5131546;27;20709;-68
2022/09/28 13:06:37;;;;;;;8.80;5.63;;;;;;;;;;5113938;28;20451;-67
2022/09/28 13:09:15;;;;;;;6.03;5.07;;;;;;;;;;5119168;27;20753;-67
2022/09/28 13:11:53;;;;;;;6.27;4.90;;;;;;;;;;5128219;27;20461;-68
2022/09/28 13:14:33;;;;;;;7.43;4.90;;;;;;;;;;5131994;28;20473;-69
2022/09/28 13:17:25;;;;;;;6.00;4.43;;;;;;;;;;5118825;28;20492;-68
2022/09/28 13:19:59;;;;;;;7.17;4.50;;;;;;;;;;5129368;27;20518;-68
2022/09/28 13:22:34;;;;;;;6.33;4.40;;;;;;;;;;5127134;27;20477;-69
2022/09/28 13:25:08;;;;;;;6.90;4.73;;;;;;;;;;5125228;27;20830;-68
2022/09/28 13:27:45;;;;;;;6.93;4.83;;;;;;;;;;5095948;28;20985;-68
2022/09/28 13:30:15;;;;;;;4.30;3.70;;;;;;;;;;5125587;27;20504;-68
2022/09/28 13:32:43;;;;;;;5.87;3.73;;;;;;;;;;5110431;28;20442;-69
2022/09/28 13:35:14;;;;;;;7.20;4.07;;;;;;;;;;5122559;28;20465;-69
2022/09/28 13:37:41;;;;;;;9.30;4.47;;;;;;;;;;5118484;28;20781;-68
2022/09/28 13:40:08;;;;;;;4.93;3.90;;;;;;;;;;5127179;27;20462;-68
2022/09/28 13:42:46;;;;;;;6.30;4.47;;;;;;;;;;5118654;27;21007;-68
2022/09/28 13:45:34;;;;;;;5.40;4.30;;;;;;;;;;5112613;28;20446;-67
2022/09/28 13:48:11;;;;;;;7.60;3.80;;;;;;;;;;5109335;27;20474;-68
2022/09/28 13:50:45;;;;;;;5.40;3.80;;;;;;;;;;5126770;27;20493;-67
2022/09/28 13:53:19;;;;;;;5.77;3.97;;;;;;;;;;5128769;28;20477;-67
2022/09/28 13:55:51;;;;;;;6.43;4.57;;;;;;;;;;5125340;27;20467;-68
2022/09/28 13:58:21;;;;;;;5.60;4.43;;;;;;;;;;5125464;27;20470;-67
2022/09/28 14:00:52;;;;;;;7.83;5.00;;;;;;;;;;5130378;27;20446;-69
2022/09/28 14:03:42;;;;;;;6.30;5.50;;;;;;;;;;5121862;28;20475;-68
2022/09/28 14:06:55;;;;;;;5.60;4.10;;;;;;;;;;5121682;28;20486;-69
2022/09/28 14:09:27;;;;;;;9.23;4.13;;;;;;;;;;5119061;27;20772;-69
2022/09/28 14:11:56;;;;;;;7.40;4.23;;;;;;;;;;5117638;28;20482;-68
2022/09/28 14:14:49;;;;;;;7.90;4.30;;;;;;;;;;5124924;28;20453;-69
2022/09/28 14:17:44;;;;;;;12.77;5.27;;;;;;;;;;5125150;27;20553;-69
2022/09/28 14:20:18;;;;;;;9.20;5.20;;;;;;;;;;5125190;28;20881;-69
2022/09/28 14:22:53;;;;;;;5.40;4.27;;;;;;;;;;5133887;27;20450;-68
2022/09/28 14:25:23;;;;;;;5.17;3.90;;;;;;;;;;5131543;27;20556;-68
2022/09/28 14:28:01;;;;;;;6.00;4.40;;;;;;;;;;5120123;27;20445;-68
2022/09/28 14:30:35;;;;;;;9.00;4.17;;;;;;;;;;5128295;27;20484;-69
2022/09/28 14:33:24;;;;;;;6.40;3.70;;;;;;;;;;5135817;27;20441;-69
2022/09/28 14:35:55;;;;;;;5.00;3.87;;;;;;;;;;5129533;27;20468;-68
2022/09/28 14:41:13;;;;;;;7.10;5.50;;;;;;;;;;5125663;27;20508;-69
2022/09/28 14:44:01;;;;;;;7.33;4.80;;;;;;;;;;5131969;27;21123;-68
2022/09/28 14:46:35;;;;;;;8.60;5.10;;;;;;;;;;5113865;28;20480;-68
2022/09/28 14:49:08;;;;;;;6.93;4.40;;;;;;;;;;5114391;28;20443;-69
2022/09/28 14:51:57;;;;;;;5.87;4.33;;;;;;;;;;5128672;27;21207;-69
2022/09/28 14:54:29;;;;;;;7.77;4.90;;;;;;;;;;5134708;27;20454;-68
2022/09/28 14:57:06;;;;;;;7.27;5.50;;;;;;;;;;5133466;27;20456;-68
2022/09/28 14:59:41;;;;;;;6.50;4.97;;;;;;;;;;5131844;27;20474;-68
2022/09/28 15:02:16;;;;;;;7.90;4.90;;;;;;;;;;5133429;27;20725;-68